Have a Safe July 4th! 

Flight Track Log - Related Links

Times and Time Zones

All times are in EDT time to prevent confusion due to time zone crossing. See the GJS6221 flight status page for this flight to view local times or setup timezone preferences in your user account.

Time Position Orientation Groundspeed Altitude Reporting Facility
EDT Latitude Longitude Course Direction KTS MPH feet Rate Location/Type
Wed 07:23:43 AM 45.4497 -73.7536 181° South 442 509 1,800  Level Boston Center
Wed 07:24:43 AM 45.4053 -73.8086 221° Southwest 355 409 4,300 2,850 Climbing Boston Center
Wed 07:25:43 AM 45.3444 -73.8456 203° Southwest 265 305 7,500 3,300 Climbing Boston Center
Wed 07:26:43 AM 45.2606 -73.8878 200° South 276 318 10,900 2,850 Climbing Boston Center
Wed 07:27:43 AM 45.1706 -73.9122 191° South 307 353 13,200 2,500 Climbing Boston Center
Wed 07:28:00 AM 44.6362 -73.7662 181° South  Level Estimated
Wed 07:28:43 AM 45.0708 -73.9097 179° South 336 387 15,900  Level Boston Center
Wed 07:29:55 AM 44.9689 -73.9011 177° South 353 406 18,100 2,227 Climbing Boston Center
Wed 07:30:55 AM 44.8375 -73.8950 178° South 385 443 20,800 2,300 Climbing Boston Center
Wed 07:31:55 AM 44.7375 -73.8925 179° South 393 452 22,700 1,650 Climbing Boston Center
Wed 07:32:55 AM 44.6253 -73.8867 178° South 403 464 24,100 1,600 Climbing Boston Center
Wed 07:33:55 AM 44.5106 -73.8811 178° South 403 464 25,900 1,750 Climbing Boston Center
Wed 07:34:55 AM 44.3836 -73.8781 179° South 409 471 27,600 1,350 Climbing Boston Center
Wed 07:35:55 AM 44.2608 -73.8719 178° South 420 483 28,600 1,050 Climbing Boston Center
Wed 07:36:55 AM 44.1336 -73.8661 178° South 453 521 29,700 1,150 Climbing Boston Center
Wed 07:37:55 AM 44.0089 -73.8603 178° South 459 528 30,900 1,000 Climbing Boston Center
Wed 07:38:55 AM 43.8858 -73.8517 177° South 464 534 31,700 550 Climbing Boston Center
Wed 07:39:55 AM 43.7567 -73.8458 178° South 464 534 32,000 150 Climbing Boston Center
Wed 07:40:55 AM 43.6172 -73.8397 178° South 464 534 32,000 -50 Level Boston Center
Wed 07:41:55 AM 43.4861 -73.8367 179° South 464 534 31,900 -500 Descending Boston Center
Wed 07:42:55 AM 43.3694 -73.8311 178° South 464 534 31,000 -950 Descending Boston Center
Wed 07:43:55 AM 43.2464 -73.8253 178° South 454 522 30,000 -1,000 Descending Boston Center
Wed 07:44:55 AM 43.1214 -73.8225 179° South 454 522 29,000 -1,000 Descending Boston Center
Wed 07:45:55 AM 42.9964 -73.8169 178° South 454 522 28,000 -1,050 Descending Boston Center
Wed 07:46:55 AM 42.8694 -73.8111 178° South 459 528 26,900 -1,050 Descending Boston Center
Wed 07:47:55 AM 42.7444 -73.8028 177° South 459 528 25,900 -1,000 Descending Boston Center
Wed 07:48:55 AM 42.6217 -73.7831 173° South 459 528 24,900 -1,350 Descending Boston Center
Wed 07:49:55 AM 42.4928 -73.7550 171° South 453 521 23,200 -1,850 Descending Boston Center
Wed 07:50:55 AM 42.3722 -73.7300 171° South 442 509 21,200 -1,850 Descending Boston Center
Wed 07:51:55 AM 42.2725 -73.7000 167° South 422 486 19,500 -1,100 Descending Boston Center
Wed 07:52:55 AM 42.1475 -73.7003 180° South 417 480 19,000 -250 Descending Boston Center
Wed 07:53:55 AM 42.0306 -73.7144 185° South 417 480 19,000 -500 Level Boston Center
Wed 07:54:55 AM 41.9200 -73.7236 184° South 434 499 18,000 -1,100 Descending Boston Center
Wed 07:55:55 AM 41.8261 -73.7356 185° South 434 499 16,800 -1,700 Descending Boston Center
Wed 07:56:55 AM 41.6903 -73.7550 186° South 418 481 14,600 -2,391 Descending Boston Center
Wed 07:58:13 AM 41.5333 -73.7667 183° South 369 425 11,300 -1,870 Descending New York TRACON
Wed 07:59:13 AM 41.4500 -73.7833 189° South 296 341 10,300 -947 Descending New York TRACON
Wed 08:00:07 AM 41.3833 -73.7833 180° South 277 319 9,500 -600 Descending New York TRACON
Wed 08:01:13 AM 41.3000 -73.7667 171° South 295 339 9,100 -667 Descending New York TRACON
Wed 08:02:13 AM 41.2333 -73.7000 143° Southeast 306 352 8,100 -1,200 Descending New York TRACON
Wed 08:03:13 AM 41.1667 -73.6500 151° Southeast 294 338 6,700 -1,250 Descending New York TRACON
Wed 08:04:13 AM 41.0833 -73.6333 171° South 283 326 5,600 -850 Descending New York TRACON
Wed 08:05:13 AM 41.0167 -73.6833 210° Southwest 259 298 5,000 -700 Descending New York TRACON
Wed 08:06:13 AM 40.9667 -73.7167 207° Southwest 254 292 4,200 -1,050 Descending New York TRACON
Wed 08:07:13 AM 40.9000 -73.7667 210° Southwest 230 265 2,900 -1,211 Descending New York TRACON
Wed 08:08:07 AM 40.8667 -73.8000 217° Southwest 192 221 1,900 -1,111 Descending New York TRACON

Login

Don't have an account? Register now (free) for customized features, flight alerts, and more!